sensor_id;sensor_type;location;lat;lon;timestamp;P1;durP1;ratioP1;P2;durP2;ratioP2
16524;SDS011;8375;33.594;-117.718;2023-03-01T00:01:36;5.67;;;2.10;;
16524;SDS011;8375;33.594;-117.718;2023-03-01T00:04:05;4.93;;;1.23;;
16524;SDS011;8375;33.594;-117.718;2023-03-01T00:06:34;4.70;;;1.30;;
16524;SDS011;8375;33.594;-117.718;2023-03-01T00:09:03;5.67;;;1.00;;
16524;SDS011;8375;33.594;-117.718;2023-03-01T00:11:32;6.80;;;1.30;;
16524;SDS011;8375;33.594;-117.718;2023-03-01T00:14:01;2.90;;;1.20;;
16524;SDS011;8375;33.594;-117.718;2023-03-01T00:16:34;5.80;;;1.30;;
16524;SDS011;8375;33.594;-117.718;2023-03-01T00:19:04;5.37;;;1.13;;
16524;SDS011;8375;33.594;-117.718;2023-03-01T00:21:34;6.53;;;1.40;;
16524;SDS011;8375;33.594;-117.718;2023-03-01T00:24:03;3.53;;;1.20;;
16524;SDS011;8375;33.594;-117.718;2023-03-01T00:26:32;6.40;;;1.47;;
16524;SDS011;8375;33.594;-117.718;2023-03-01T00:29:00;8.97;;;1.93;;
16524;SDS011;8375;33.594;-117.718;2023-03-01T00:31:30;4.17;;;1.20;;
16524;SDS011;8375;33.594;-117.718;2023-03-01T00:34:01;3.57;;;1.20;;
16524;SDS011;8375;33.594;-117.718;2023-03-01T00:36:32;7.43;;;1.70;;
16524;SDS011;8375;33.594;-117.718;2023-03-01T00:39:02;8.57;;;1.73;;
16524;SDS011;8375;33.594;-117.718;2023-03-01T00:41:31;8.90;;;1.80;;
16524;SDS011;8375;33.594;-117.718;2023-03-01T00:44:00;7.60;;;1.50;;
16524;SDS011;8375;33.594;-117.718;2023-03-01T00:46:29;5.03;;;1.50;;
16524;SDS011;8375;33.594;-117.718;2023-03-01T00:48:59;5.60;;;1.90;;
16524;SDS011;8375;33.594;-117.718;2023-03-01T00:51:30;5.77;;;1.47;;
16524;SDS011;8375;33.594;-117.718;2023-03-01T00:53:59;8.70;;;1.50;;
16524;SDS011;8375;33.594;-117.718;2023-03-01T00:56:29;6.47;;;1.60;;
16524;SDS011;8375;33.594;-117.718;2023-03-01T00:58:58;5.10;;;1.43;;
16524;SDS011;8375;33.594;-117.718;2023-03-01T01:01:27;3.40;;;1.23;;
16524;SDS011;8375;33.594;-117.718;2023-03-01T01:04:00;6.60;;;1.67;;
16524;SDS011;8375;33.594;-117.718;2023-03-01T01:06:30;7.20;;;1.60;;
16524;SDS011;8375;33.594;-117.718;2023-03-01T01:09:00;11.60;;;1.93;;
16524;SDS011;8375;33.594;-117.718;2023-03-01T01:11:30;5.37;;;1.20;;
16524;SDS011;8375;33.594;-117.718;2023-03-01T01:13:59;4.37;;;1.60;;
16524;SDS011;8375;33.594;-117.718;2023-03-01T01:16:28;4.27;;;1.53;;
16524;SDS011;8375;33.594;-117.718;2023-03-01T01:18:57;7.70;;;1.50;;
16524;SDS011;8375;33.594;-117.718;2023-03-01T01:21:27;11.20;;;1.60;;
16524;SDS011;8375;33.594;-117.718;2023-03-01T01:23:56;8.07;;;1.60;;
16524;SDS011;8375;33.594;-117.718;2023-03-01T01:26:25;7.70;;;1.57;;
16524;SDS011;8375;33.594;-117.718;2023-03-01T01:28:56;7.33;;;1.33;;
16524;SDS011;8375;33.594;-117.718;2023-03-01T01:31:26;5.33;;;1.67;;
16524;SDS011;8375;33.594;-117.718;2023-03-01T01:33:56;9.03;;;1.87;;
16524;SDS011;8375;33.594;-117.718;2023-03-01T01:36:28;6.87;;;1.70;;
16524;SDS011;8375;33.594;-117.718;2023-03-01T01:38:57;6.90;;;1.57;;
16524;SDS011;8375;33.594;-117.718;2023-03-01T01:41:27;8.67;;;1.83;;
16524;SDS011;8375;33.594;-117.718;2023-03-01T01:46:45;8.17;;;1.50;;
16524;SDS011;8375;33.594;-117.718;2023-03-01T01:49:17;8.07;;;1.57;;
16524;SDS011;8375;33.594;-117.718;2023-03-01T01:51:55;3.63;;;1.20;;
16524;SDS011;8375;33.594;-117.718;2023-03-01T01:54:28;6.73;;;1.90;;
16524;SDS011;8375;33.594;-117.718;2023-03-01T01:57:02;8.57;;;1.70;;
16524;SDS011;8375;33.594;-117.718;2023-03-01T01:59:34;5.73;;;1.40;;
16524;SDS011;8375;33.594;-117.718;2023-03-01T02:02:04;9.67;;;2.43;;
16524;SDS011;8375;33.594;-117.718;2023-03-01T02:04:34;7.83;;;1.77;;
16524;SDS011;8375;33.594;-117.718;2023-03-01T02:07:05;7.30;;;1.77;;
16524;SDS011;8375;33.594;-117.718;2023-03-01T02:09:41;9.07;;;1.97;;
16524;SDS011;8375;33.594;-117.718;2023-03-01T02:12:12;6.83;;;1.70;;
16524;SDS011;8375;33.594;-117.718;2023-03-01T02:14:42;8.97;;;1.80;;
16524;SDS011;8375;33.594;-117.718;2023-03-01T02:17:11;9.30;;;1.80;;
16524;SDS011;8375;33.594;-117.718;2023-03-01T02:19:46;10.73;;;2.47;;
16524;SDS011;8375;33.594;-117.718;2023-03-01T02:22:26;10.50;;;2.00;;
16524;SDS011;8375;33.594;-117.718;2023-03-01T02:25:00;9.83;;;2.20;;
16524;SDS011;8375;33.594;-117.718;2023-03-01T02:27:40;6.33;;;2.00;;
16524;SDS011;8375;33.594;-117.718;2023-03-01T02:30:18;6.30;;;1.60;;
16524;SDS011;8375;33.594;-117.718;2023-03-01T02:32:48;7.27;;;1.83;;
16524;SDS011;8375;33.594;-117.718;2023-03-01T02:35:17;8.83;;;1.93;;
16524;SDS011;8375;33.594;-117.718;2023-03-01T02:37:46;7.43;;;2.00;;
16524;SDS011;8375;33.594;-117.718;2023-03-01T02:40:19;6.57;;;1.80;;
16524;SDS011;8375;33.594;-117.718;2023-03-01T02:42:50;7.60;;;2.17;;
16524;SDS011;8375;33.594;-117.718;2023-03-01T02:45:23;4.97;;;1.87;;
16524;SDS011;8375;33.594;-117.718;2023-03-01T02:47:54;9.27;;;2.00;;
16524;SDS011;8375;33.594;-117.718;2023-03-01T02:50:27;10.97;;;2.47;;
16524;SDS011;8375;33.594;-117.718;2023-03-01T02:53:21;9.43;;;2.50;;
16524;SDS011;8375;33.594;-117.718;2023-03-01T02:55:56;4.93;;;1.60;;
16524;SDS011;8375;33.594;-117.718;2023-03-01T02:58:25;5.77;;;1.50;;
16524;SDS011;8375;33.594;-117.718;2023-03-01T03:00:56;7.50;;;1.57;;
16524;SDS011;8375;33.594;-117.718;2023-03-01T03:03:26;9.67;;;2.10;;
16524;SDS011;8375;33.594;-117.718;2023-03-01T03:05:55;9.13;;;2.00;;
16524;SDS011;8375;33.594;-117.718;2023-03-01T03:08:24;8.70;;;2.10;;
16524;SDS011;8375;33.594;-117.718;2023-03-01T03:10:52;9.53;;;1.97;;
16524;SDS011;8375;33.594;-117.718;2023-03-01T03:13:22;9.87;;;2.00;;
16524;SDS011;8375;33.594;-117.718;2023-03-01T03:15:54;7.00;;;1.63;;
16524;SDS011;8375;33.594;-117.718;2023-03-01T03:18:25;9.63;;;2.20;;
16524;SDS011;8375;33.594;-117.718;2023-03-01T03:20:55;14.03;;;2.20;;
16524;SDS011;8375;33.594;-117.718;2023-03-01T03:23:24;8.30;;;2.20;;
16524;SDS011;8375;33.594;-117.718;2023-03-01T03:25:55;8.43;;;1.83;;
16524;SDS011;8375;33.594;-117.718;2023-03-01T03:28:23;6.77;;;2.13;;
16524;SDS011;8375;33.594;-117.718;2023-03-01T03:30:52;7.17;;;1.90;;
16524;SDS011;8375;33.594;-117.718;2023-03-01T03:33:24;8.13;;;2.17;;
16524;SDS011;8375;33.594;-117.718;2023-03-01T03:35:52;8.40;;;2.20;;
16524;SDS011;8375;33.594;-117.718;2023-03-01T03:38:21;8.20;;;1.90;;
16524;SDS011;8375;33.594;-117.718;2023-03-01T03:40:51;9.83;;;1.80;;
16524;SDS011;8375;33.594;-117.718;2023-03-01T03:43:28;8.20;;;1.80;;
16524;SDS011;8375;33.594;-117.718;2023-03-01T03:45:58;13.20;;;2.13;;
16524;SDS011;8375;33.594;-117.718;2023-03-01T03:48:32;7.00;;;2.07;;
16524;SDS011;8375;33.594;-117.718;2023-03-01T03:51:02;5.97;;;1.77;;
16524;SDS011;8375;33.594;-117.718;2023-03-01T03:53:32;9.37;;;2.00;;
16524;SDS011;8375;33.594;-117.718;2023-03-01T03:56:01;7.77;;;1.97;;
16524;SDS011;8375;33.594;-117.718;2023-03-01T03:58:30;7.33;;;1.87;;
16524;SDS011;8375;33.594;-117.718;2023-03-01T04:00:59;8.33;;;2.20;;
16524;SDS011;8375;33.594;-117.718;2023-03-01T04:03:28;5.83;;;2.17;;
16524;SDS011;8375;33.594;-117.718;2023-03-01T04:05:59;7.40;;;2.50;;
16524;SDS011;8375;33.594;-117.718;2023-03-01T04:08:28;9.17;;;2.07;;
16524;SDS011;8375;33.594;-117.718;2023-03-01T04:10:58;11.40;;;2.23;;
16524;SDS011;8375;33.594;-117.718;2023-03-01T04:13:49;11.17;;;2.60;;
16524;SDS011;8375;33.594;-117.718;2023-03-01T04:16:20;15.37;;;2.40;;
16524;SDS011;8375;33.594;-117.718;2023-03-01T04:18:49;8.87;;;2.57;;
16524;SDS011;8375;33.594;-117.718;2023-03-01T04:21:19;7.90;;;1.87;;
16524;SDS011;8375;33.594;-117.718;2023-03-01T04:23:48;7.60;;;1.93;;
16524;SDS011;8375;33.594;-117.718;2023-03-01T04:26:18;11.20;;;2.00;;
16524;SDS011;8375;33.594;-117.718;2023-03-01T04:28:47;6.87;;;1.90;;
16524;SDS011;8375;33.594;-117.718;2023-03-01T04:31:16;7.57;;;2.17;;
16524;SDS011;8375;33.594;-117.718;2023-03-01T04:33:47;8.70;;;2.20;;
16524;SDS011;8375;33.594;-117.718;2023-03-01T04:36:20;5.37;;;1.50;;
16524;SDS011;8375;33.594;-117.718;2023-03-01T04:38:50;8.33;;;1.93;;
16524;SDS011;8375;33.594;-117.718;2023-03-01T04:41:19;8.20;;;2.07;;
16524;SDS011;8375;33.594;-117.718;2023-03-01T04:43:49;7.37;;;1.73;;
16524;SDS011;8375;33.594;-117.718;2023-03-01T04:46:19;11.33;;;1.90;;
16524;SDS011;8375;33.594;-117.718;2023-03-01T04:48:48;9.83;;;2.40;;
16524;SDS011;8375;33.594;-117.718;2023-03-01T04:51:18;6.03;;;1.90;;
16524;SDS011;8375;33.594;-117.718;2023-03-01T04:53:48;6.87;;;1.80;;
16524;SDS011;8375;33.594;-117.718;2023-03-01T04:56:17;9.80;;;1.70;;
16524;SDS011;8375;33.594;-117.718;2023-03-01T04:58:45;10.40;;;2.00;;
16524;SDS011;8375;33.594;-117.718;2023-03-01T05:01:15;11.77;;;2.33;;
16524;SDS011;8375;33.594;-117.718;2023-03-01T05:03:45;9.10;;;2.20;;
16524;SDS011;8375;33.594;-117.718;2023-03-01T05:06:15;11.33;;;2.20;;
16524;SDS011;8375;33.594;-117.718;2023-03-01T05:08:47;12.70;;;2.60;;
16524;SDS011;8375;33.594;-117.718;2023-03-01T05:11:16;14.73;;;2.63;;
16524;SDS011;8375;33.594;-117.718;2023-03-01T05:13:44;12.73;;;2.40;;
16524;SDS011;8375;33.594;-117.718;2023-03-01T05:16:15;7.93;;;2.27;;
16524;SDS011;8375;33.594;-117.718;2023-03-01T05:18:45;11.60;;;2.50;;
16524;SDS011;8375;33.594;-117.718;2023-03-01T05:21:16;6.77;;;1.60;;
16524;SDS011;8375;33.594;-117.718;2023-03-01T05:23:44;8.63;;;2.30;;
16524;SDS011;8375;33.594;-117.718;2023-03-01T05:26:15;10.37;;;3.30;;
16524;SDS011;8375;33.594;-117.718;2023-03-01T05:28:47;12.30;;;2.73;;
16524;SDS011;8375;33.594;-117.718;2023-03-01T05:31:16;12.67;;;2.60;;
16524;SDS011;8375;33.594;-117.718;2023-03-01T05:33:44;9.50;;;2.40;;
16524;SDS011;8375;33.594;-117.718;2023-03-01T05:36:13;14.50;;;3.30;;
16524;SDS011;8375;33.594;-117.718;2023-03-01T05:38:43;14.30;;;3.20;;
16524;SDS011;8375;33.594;-117.718;2023-03-01T05:41:15;10.67;;;3.00;;
16524;SDS011;8375;33.594;-117.718;2023-03-01T05:43:44;11.63;;;2.70;;
16524;SDS011;8375;33.594;-117.718;2023-03-01T05:46:12;12.50;;;2.77;;
16524;SDS011;8375;33.594;-117.718;2023-03-01T05:48:41;8.07;;;2.30;;
16524;SDS011;8375;33.594;-117.718;2023-03-01T05:51:10;9.60;;;2.27;;
16524;SDS011;8375;33.594;-117.718;2023-03-01T05:53:38;13.17;;;2.87;;
16524;SDS011;8375;33.594;-117.718;2023-03-01T05:56:07;14.03;;;2.43;;
16524;SDS011;8375;33.594;-117.718;2023-03-01T05:58:38;6.77;;;2.43;;
16524;SDS011;8375;33.594;-117.718;2023-03-01T06:01:10;9.50;;;2.17;;
16524;SDS011;8375;33.594;-117.718;2023-03-01T06:03:39;9.73;;;2.10;;
16524;SDS011;8375;33.594;-117.718;2023-03-01T06:06:08;6.87;;;1.93;;
16524;SDS011;8375;33.594;-117.718;2023-03-01T06:08:36;9.77;;;2.20;;
16524;SDS011;8375;33.594;-117.718;2023-03-01T06:11:05;7.80;;;2.30;;
16524;SDS011;8375;33.594;-117.718;2023-03-01T06:13:34;10.63;;;2.77;;
16524;SDS011;8375;33.594;-117.718;2023-03-01T06:16:06;9.03;;;2.33;;
16524;SDS011;8375;33.594;-117.718;2023-03-01T06:18:35;7.47;;;1.87;;
16524;SDS011;8375;33.594;-117.718;2023-03-01T06:21:04;8.17;;;1.90;;
16524;SDS011;8375;33.594;-117.718;2023-03-01T06:23:33;8.20;;;2.30;;
16524;SDS011;8375;33.594;-117.718;2023-03-01T06:26:05;7.73;;;2.00;;
16524;SDS011;8375;33.594;-117.718;2023-03-01T06:28:34;10.27;;;2.20;;
16524;SDS011;8375;33.594;-117.718;2023-03-01T06:31:05;8.67;;;2.00;;
16524;SDS011;8375;33.594;-117.718;2023-03-01T06:33:34;11.57;;;2.30;;
16524;SDS011;8375;33.594;-117.718;2023-03-01T06:36:03;7.10;;;2.00;;
16524;SDS011;8375;33.594;-117.718;2023-03-01T06:38:32;10.50;;;2.27;;
16524;SDS011;8375;33.594;-117.718;2023-03-01T06:41:01;7.30;;;2.00;;
16524;SDS011;8375;33.594;-117.718;2023-03-01T06:43:29;14.20;;;2.57;;
16524;SDS011;8375;33.594;-117.718;2023-03-01T06:45:58;8.37;;;1.83;;
16524;SDS011;8375;33.594;-117.718;2023-03-01T06:48:29;8.30;;;1.80;;
16524;SDS011;8375;33.594;-117.718;2023-03-01T06:50:58;6.70;;;1.80;;
16524;SDS011;8375;33.594;-117.718;2023-03-01T06:53:27;8.40;;;1.90;;
16524;SDS011;8375;33.594;-117.718;2023-03-01T06:55:56;11.93;;;2.43;;
16524;SDS011;8375;33.594;-117.718;2023-03-01T06:58:26;5.47;;;1.90;;
16524;SDS011;8375;33.594;-117.718;2023-03-01T07:00:55;9.03;;;1.83;;
16524;SDS011;8375;33.594;-117.718;2023-03-01T07:03:23;9.60;;;1.80;;
16524;SDS011;8375;33.594;-117.718;2023-03-01T07:05:53;11.47;;;1.87;;
16524;SDS011;8375;33.594;-117.718;2023-03-01T07:08:22;13.50;;;2.63;;
16524;SDS011;8375;33.594;-117.718;2023-03-01T07:10:54;10.87;;;2.17;;
16524;SDS011;8375;33.594;-117.718;2023-03-01T07:13:23;8.90;;;1.70;;
16524;SDS011;8375;33.594;-117.718;2023-03-01T07:15:52;10.80;;;2.23;;
16524;SDS011;8375;33.594;-117.718;2023-03-01T07:18:21;8.93;;;2.10;;
16524;SDS011;8375;33.594;-117.718;2023-03-01T07:20:49;7.90;;;2.23;;
16524;SDS011;8375;33.594;-117.718;2023-03-01T07:23:20;9.10;;;1.77;;
16524;SDS011;8375;33.594;-117.718;2023-03-01T07:25:51;10.77;;;1.93;;
16524;SDS011;8375;33.594;-117.718;2023-03-01T07:28:20;9.10;;;2.00;;
16524;SDS011;8375;33.594;-117.718;2023-03-01T07:30:50;12.90;;;2.10;;
16524;SDS011;8375;33.594;-117.718;2023-03-01T07:33:19;5.33;;;1.50;;
16524;SDS011;8375;33.594;-117.718;2023-03-01T07:35:48;10.00;;;1.87;;
16524;SDS011;8375;33.594;-117.718;2023-03-01T07:38:26;6.73;;;1.33;;
16524;SDS011;8375;33.594;-117.718;2023-03-01T07:40:57;3.87;;;1.10;;
16524;SDS011;8375;33.594;-117.718;2023-03-01T07:43:26;4.67;;;1.10;;
16524;SDS011;8375;33.594;-117.718;2023-03-01T07:45:57;6.33;;;1.50;;
16524;SDS011;8375;33.594;-117.718;2023-03-01T07:48:27;4.33;;;0.90;;
16524;SDS011;8375;33.594;-117.718;2023-03-01T07:50:57;7.73;;;1.50;;
16524;SDS011;8375;33.594;-117.718;2023-03-01T07:53:28;4.50;;;0.90;;
16524;SDS011;8375;33.594;-117.718;2023-03-01T07:56:00;6.17;;;1.13;;
16524;SDS011;8375;33.594;-117.718;2023-03-01T07:58:30;3.63;;;1.07;;
16524;SDS011;8375;33.594;-117.718;2023-03-01T08:01:00;4.60;;;1.27;;
16524;SDS011;8375;33.594;-117.718;2023-03-01T08:03:29;7.27;;;1.37;;
16524;SDS011;8375;33.594;-117.718;2023-03-01T08:05:59;7.03;;;1.00;;
16524;SDS011;8375;33.594;-117.718;2023-03-01T08:08:29;5.57;;;1.20;;
16524;SDS011;8375;33.594;-117.718;2023-03-01T08:10:59;5.30;;;1.23;;
16524;SDS011;8375;33.594;-117.718;2023-03-01T08:13:28;5.17;;;1.13;;
16524;SDS011;8375;33.594;-117.718;2023-03-01T08:16:00;5.00;;;1.40;;
16524;SDS011;8375;33.594;-117.718;2023-03-01T08:18:29;4.13;;;1.00;;
16524;SDS011;8375;33.594;-117.718;2023-03-01T08:21:01;4.57;;;1.30;;
16524;SDS011;8375;33.594;-117.718;2023-03-01T08:23:32;3.97;;;0.83;;
16524;SDS011;8375;33.594;-117.718;2023-03-01T08:26:05;8.10;;;1.43;;
16524;SDS011;8375;33.594;-117.718;2023-03-01T08:28:35;6.17;;;1.23;;
16524;SDS011;8375;33.594;-117.718;2023-03-01T08:31:13;6.23;;;1.27;;
16524;SDS011;8375;33.594;-117.718;2023-03-01T08:33:42;5.03;;;1.33;;
16524;SDS011;8375;33.594;-117.718;2023-03-01T08:36:16;5.87;;;1.03;;
16524;SDS011;8375;33.594;-117.718;2023-03-01T08:38:48;7.70;;;1.40;;
16524;SDS011;8375;33.594;-117.718;2023-03-01T08:41:17;6.47;;;1.03;;
16524;SDS011;8375;33.594;-117.718;2023-03-01T08:43:45;5.20;;;1.00;;
16524;SDS011;8375;33.594;-117.718;2023-03-01T08:46:14;5.63;;;1.27;;
16524;SDS011;8375;33.594;-117.718;2023-03-01T08:48:43;7.03;;;1.37;;
16524;SDS011;8375;33.594;-117.718;2023-03-01T08:51:12;6.03;;;1.20;;
16524;SDS011;8375;33.594;-117.718;2023-03-01T08:53:42;8.77;;;1.30;;
16524;SDS011;8375;33.594;-117.718;2023-03-01T08:56:13;6.13;;;1.30;;
16524;SDS011;8375;33.594;-117.718;2023-03-01T08:58:43;6.27;;;1.10;;
16524;SDS011;8375;33.594;-117.718;2023-03-01T09:01:13;8.40;;;1.50;;
16524;SDS011;8375;33.594;-117.718;2023-03-01T09:03:43;4.93;;;0.90;;
16524;SDS011;8375;33.594;-117.718;2023-03-01T09:06:12;6.23;;;1.30;;
16524;SDS011;8375;33.594;-117.718;2023-03-01T09:08:42;4.93;;;1.30;;
16524;SDS011;8375;33.594;-117.718;2023-03-01T09:11:14;10.73;;;1.37;;
16524;SDS011;8375;33.594;-117.718;2023-03-01T09:13:44;5.23;;;1.50;;
16524;SDS011;8375;33.594;-117.718;2023-03-01T09:16:15;9.30;;;1.77;;
16524;SDS011;8375;33.594;-117.718;2023-03-01T09:18:45;6.97;;;1.33;;
16524;SDS011;8375;33.594;-117.718;2023-03-01T09:21:17;10.60;;;2.00;;
16524;SDS011;8375;33.594;-117.718;2023-03-01T09:23:46;7.20;;;1.83;;
16524;SDS011;8375;33.594;-117.718;2023-03-01T09:26:17;7.83;;;1.30;;
16524;SDS011;8375;33.594;-117.718;2023-03-01T09:28:48;9.30;;;1.70;;
16524;SDS011;8375;33.594;-117.718;2023-03-01T09:31:19;6.73;;;1.67;;
16524;SDS011;8375;33.594;-117.718;2023-03-01T09:33:49;6.57;;;1.80;;
16524;SDS011;8375;33.594;-117.718;2023-03-01T09:36:19;7.97;;;1.40;;
16524;SDS011;8375;33.594;-117.718;2023-03-01T09:38:49;10.30;;;2.37;;
16524;SDS011;8375;33.594;-117.718;2023-03-01T09:41:26;6.33;;;1.40;;
16524;SDS011;8375;33.594;-117.718;2023-03-01T09:44:07;10.87;;;1.70;;
16524;SDS011;8375;33.594;-117.718;2023-03-01T09:46:43;11.83;;;1.37;;
16524;SDS011;8375;33.594;-117.718;2023-03-01T09:49:14;6.00;;;1.70;;
16524;SDS011;8375;33.594;-117.718;2023-03-01T09:51:47;8.73;;;1.80;;
16524;SDS011;8375;33.594;-117.718;2023-03-01T09:54:24;4.70;;;1.97;;
16524;SDS011;8375;33.594;-117.718;2023-03-01T09:56:59;6.53;;;1.73;;
16524;SDS011;8375;33.594;-117.718;2023-03-01T09:59:37;9.23;;;1.67;;
16524;SDS011;8375;33.594;-117.718;2023-03-01T10:02:23;8.40;;;1.70;;
16524;SDS011;8375;33.594;-117.718;2023-03-01T10:04:56;9.60;;;1.57;;
16524;SDS011;8375;33.594;-117.718;2023-03-01T10:07:35;5.57;;;1.40;;
16524;SDS011;8375;33.594;-117.718;2023-03-01T10:10:16;7.20;;;1.50;;
16524;SDS011;8375;33.594;-117.718;2023-03-01T10:12:55;9.27;;;1.63;;
16524;SDS011;8375;33.594;-117.718;2023-03-01T10:15:26;9.73;;;1.50;;
16524;SDS011;8375;33.594;-117.718;2023-03-01T10:18:03;7.60;;;1.60;;
16524;SDS011;8375;33.594;-117.718;2023-03-01T10:20:42;7.10;;;1.60;;
16524;SDS011;8375;33.594;-117.718;2023-03-01T10:23:14;11.97;;;2.20;;
16524;SDS011;8375;33.594;-117.718;2023-03-01T10:25:45;13.43;;;2.10;;
16524;SDS011;8375;33.594;-117.718;2023-03-01T10:28:23;9.20;;;1.93;;
16524;SDS011;8375;33.594;-117.718;2023-03-01T10:30:57;11.53;;;1.80;;
16524;SDS011;8375;33.594;-117.718;2023-03-01T10:33:27;10.13;;;1.70;;
16524;SDS011;8375;33.594;-117.718;2023-03-01T10:35:58;10.50;;;1.87;;
16524;SDS011;8375;33.594;-117.718;2023-03-01T10:38:27;7.50;;;1.93;;
16524;SDS011;8375;33.594;-117.718;2023-03-01T10:40:59;12.33;;;2.53;;
16524;SDS011;8375;33.594;-117.718;2023-03-01T10:43:43;14.23;;;2.03;;
16524;SDS011;8375;33.594;-117.718;2023-03-01T10:46:23;10.90;;;2.30;;
16524;SDS011;8375;33.594;-117.718;2023-03-01T10:49:13;13.17;;;1.93;;
16524;SDS011;8375;33.594;-117.718;2023-03-01T10:51:43;12.67;;;2.70;;
16524;SDS011;8375;33.594;-117.718;2023-03-01T10:54:17;11.20;;;2.00;;
16524;SDS011;8375;33.594;-117.718;2023-03-01T10:56:47;12.47;;;2.70;;
16524;SDS011;8375;33.594;-117.718;2023-03-01T10:59:29;7.97;;;1.67;;
16524;SDS011;8375;33.594;-117.718;2023-03-01T11:02:14;11.30;;;2.23;;
16524;SDS011;8375;33.594;-117.718;2023-03-01T11:04:56;9.47;;;1.67;;
16524;SDS011;8375;33.594;-117.718;2023-03-01T11:07:26;10.00;;;2.07;;
16524;SDS011;8375;33.594;-117.718;2023-03-01T11:09:54;10.67;;;1.70;;
16524;SDS011;8375;33.594;-117.718;2023-03-01T11:12:23;11.03;;;2.43;;
16524;SDS011;8375;33.594;-117.718;2023-03-01T11:14:56;13.57;;;2.13;;
16524;SDS011;8375;33.594;-117.718;2023-03-01T11:17:27;10.50;;;2.07;;
16524;SDS011;8375;33.594;-117.718;2023-03-01T11:20:00;11.37;;;2.40;;
16524;SDS011;8375;33.594;-117.718;2023-03-01T11:22:32;10.07;;;2.07;;
16524;SDS011;8375;33.594;-117.718;2023-03-01T11:25:03;9.87;;;3.30;;
16524;SDS011;8375;33.594;-117.718;2023-03-01T11:27:32;9.10;;;2.63;;
16524;SDS011;8375;33.594;-117.718;2023-03-01T11:30:07;12.43;;;2.77;;
16524;SDS011;8375;33.594;-117.718;2023-03-01T11:32:47;13.23;;;2.20;;
16524;SDS011;8375;33.594;-117.718;2023-03-01T11:35:25;7.60;;;1.73;;
16524;SDS011;8375;33.594;-117.718;2023-03-01T11:37:59;6.33;;;2.00;;
16524;SDS011;8375;33.594;-117.718;2023-03-01T11:40:38;11.87;;;3.30;;
16524;SDS011;8375;33.594;-117.718;2023-03-01T11:43:13;7.50;;;2.23;;
16524;SDS011;8375;33.594;-117.718;2023-03-01T11:45:57;13.77;;;2.47;;
16524;SDS011;8375;33.594;-117.718;2023-03-01T11:48:48;10.43;;;2.10;;
16524;SDS011;8375;33.594;-117.718;2023-03-01T11:51:31;12.27;;;2.57;;
16524;SDS011;8375;33.594;-117.718;2023-03-01T11:54:12;12.30;;;2.40;;
16524;SDS011;8375;33.594;-117.718;2023-03-01T11:56:46;9.83;;;2.10;;
16524;SDS011;8375;33.594;-117.718;2023-03-01T11:59:35;8.13;;;1.50;;
16524;SDS011;8375;33.594;-117.718;2023-03-01T12:05:42;9.47;;;2.03;;
16524;SDS011;8375;33.594;-117.718;2023-03-01T12:08:30;9.50;;;2.10;;
16524;SDS011;8375;33.594;-117.718;2023-03-01T12:11:06;7.00;;;1.43;;
16524;SDS011;8375;33.594;-117.718;2023-03-01T12:13:55;5.87;;;2.07;;
16524;SDS011;8375;33.594;-117.718;2023-03-01T12:16:55;6.93;;;1.80;;
16524;SDS011;8375;33.594;-117.718;2023-03-01T12:19:50;11.17;;;2.03;;
16524;SDS011;8375;33.594;-117.718;2023-03-01T12:22:38;7.07;;;1.70;;
16524;SDS011;8375;33.594;-117.718;2023-03-01T12:25:19;14.67;;;2.37;;
16524;SDS011;8375;33.594;-117.718;2023-03-01T12:27:59;11.10;;;2.03;;
16524;SDS011;8375;33.594;-117.718;2023-03-01T12:30:54;8.13;;;2.23;;
16524;SDS011;8375;33.594;-117.718;2023-03-01T12:33:53;8.47;;;1.73;;
16524;SDS011;8375;33.594;-117.718;2023-03-01T12:36:33;11.47;;;2.50;;
16524;SDS011;8375;33.594;-117.718;2023-03-01T12:39:15;10.07;;;2.10;;
16524;SDS011;8375;33.594;-117.718;2023-03-01T12:41:53;10.47;;;2.20;;
16524;SDS011;8375;33.594;-117.718;2023-03-01T12:47:26;9.57;;;2.00;;
16524;SDS011;8375;33.594;-117.718;2023-03-01T12:50:11;9.77;;;1.90;;
16524;SDS011;8375;33.594;-117.718;2023-03-01T12:52:47;13.10;;;2.40;;
16524;SDS011;8375;33.594;-117.718;2023-03-01T12:55:23;16.27;;;2.30;;
16524;SDS011;8375;33.594;-117.718;2023-03-01T12:58:07;13.67;;;2.00;;
16524;SDS011;8375;33.594;-117.718;2023-03-01T13:00:52;9.90;;;1.97;;
16524;SDS011;8375;33.594;-117.718;2023-03-01T13:03:33;11.77;;;1.70;;
16524;SDS011;8375;33.594;-117.718;2023-03-01T13:06:11;8.63;;;1.53;;
16524;SDS011;8375;33.594;-117.718;2023-03-01T13:08:47;7.40;;;1.53;;
16524;SDS011;8375;33.594;-117.718;2023-03-01T13:11:22;11.00;;;2.00;;
16524;SDS011;8375;33.594;-117.718;2023-03-01T13:14:35;8.87;;;1.50;;
16524;SDS011;8375;33.594;-117.718;2023-03-01T13:16:58;9.03;;;2.27;;
16524;SDS011;8375;33.594;-117.718;2023-03-01T13:19:27;12.53;;;2.00;;
16524;SDS011;8375;33.594;-117.718;2023-03-01T13:21:57;8.13;;;2.30;;
16524;SDS011;8375;33.594;-117.718;2023-03-01T13:24:28;19.47;;;3.20;;
16524;SDS011;8375;33.594;-117.718;2023-03-01T13:27:09;10.23;;;2.23;;
16524;SDS011;8375;33.594;-117.718;2023-03-01T13:29:54;11.67;;;2.40;;
16524;SDS011;8375;33.594;-117.718;2023-03-01T13:32:29;21.87;;;2.90;;
16524;SDS011;8375;33.594;-117.718;2023-03-01T13:35:08;15.90;;;2.90;;
16524;SDS011;8375;33.594;-117.718;2023-03-01T13:41:08;17.13;;;2.63;;
16524;SDS011;8375;33.594;-117.718;2023-03-01T13:43:37;22.20;;;3.60;;
16524;SDS011;8375;33.594;-117.718;2023-03-01T13:46:09;12.27;;;2.00;;
16524;SDS011;8375;33.594;-117.718;2023-03-01T13:48:40;20.50;;;3.10;;
16524;SDS011;8375;33.594;-117.718;2023-03-01T13:51:10;15.30;;;3.33;;
16524;SDS011;8375;33.594;-117.718;2023-03-01T13:53:40;10.17;;;1.90;;
16524;SDS011;8375;33.594;-117.718;2023-03-01T13:56:13;8.43;;;1.70;;
16524;SDS011;8375;33.594;-117.718;2023-03-01T13:58:49;7.50;;;1.40;;
16524;SDS011;8375;33.594;-117.718;2023-03-01T14:01:24;7.73;;;1.50;;
16524;SDS011;8375;33.594;-117.718;2023-03-01T14:03:55;9.40;;;1.50;;
16524;SDS011;8375;33.594;-117.718;2023-03-01T14:06:25;11.20;;;1.67;;
16524;SDS011;8375;33.594;-117.718;2023-03-01T14:09:01;8.37;;;1.70;;
16524;SDS011;8375;33.594;-117.718;2023-03-01T14:11:52;5.70;;;1.37;;
16524;SDS011;8375;33.594;-117.718;2023-03-01T14:14:42;7.77;;;1.70;;
16524;SDS011;8375;33.594;-117.718;2023-03-01T14:20:17;5.33;;;1.37;;
16524;SDS011;8375;33.594;-117.718;2023-03-01T14:22:47;9.07;;;1.40;;
16524;SDS011;8375;33.594;-117.718;2023-03-01T14:25:19;8.53;;;1.50;;
16524;SDS011;8375;33.594;-117.718;2023-03-01T14:27:59;8.63;;;2.03;;
16524;SDS011;8375;33.594;-117.718;2023-03-01T14:30:31;8.53;;;1.60;;
16524;SDS011;8375;33.594;-117.718;2023-03-01T14:33:03;7.30;;;1.83;;
16524;SDS011;8375;33.594;-117.718;2023-03-01T14:35:34;11.73;;;1.73;;
16524;SDS011;8375;33.594;-117.718;2023-03-01T14:38:04;6.30;;;1.50;;
16524;SDS011;8375;33.594;-117.718;2023-03-01T14:40:34;11.13;;;1.80;;
16524;SDS011;8375;33.594;-117.718;2023-03-01T14:43:11;9.67;;;1.90;;
16524;SDS011;8375;33.594;-117.718;2023-03-01T14:45:47;13.93;;;2.30;;
16524;SDS011;8375;33.594;-117.718;2023-03-01T14:48:18;7.13;;;1.80;;
16524;SDS011;8375;33.594;-117.718;2023-03-01T14:50:47;12.83;;;2.43;;
16524;SDS011;8375;33.594;-117.718;2023-03-01T14:53:17;11.70;;;2.00;;
16524;SDS011;8375;33.594;-117.718;2023-03-01T14:55:50;6.73;;;1.70;;
16524;SDS011;8375;33.594;-117.718;2023-03-01T14:58:24;6.10;;;1.33;;
16524;SDS011;8375;33.594;-117.718;2023-03-01T15:00:53;7.33;;;1.30;;
16524;SDS011;8375;33.594;-117.718;2023-03-01T15:03:26;5.43;;;1.30;;
16524;SDS011;8375;33.594;-117.718;2023-03-01T15:05:58;7.60;;;1.10;;